Time;durP1;ratioP1;P1;durP2;ratioP2;P2;SDS_P1;SDS_P2;PMS_P1;PMS_P2;Temp;Humidity;BMP_temperature;BMP_pressure;BME280_temperature;BME280_humidity;BME280_pressure;Samples;Min_cycle;Max_cycle;Signal;HPM_P1;HPM_P2
2023/09/15 00:02:51;;;;;;;2.15;1.77;;;13.80;99.90;;;;;;6292735;28;20049;-79
2023/09/15 00:05:53;;;;;;;4.18;2.10;;;13.80;99.90;;;;;;6284075;28;20067;-79
2023/09/15 00:08:55;;;;;;;4.50;1.98;;;13.70;99.90;;;;;;6283108;28;20049;-79
2023/09/15 00:11:56;;;;;;;4.53;1.70;;;13.70;99.90;;;;;;6281726;28;20048;-79
2023/09/15 00:14:58;;;;;;;2.35;2.13;;;13.80;99.90;;;;;;6282470;28;20060;-78
2023/09/15 00:18:01;;;;;;;2.63;2.08;;;13.80;99.90;;;;;;6281984;28;20441;-79
2023/09/15 00:21:05;;;;;;;2.28;2.03;;;13.80;99.90;;;;;;6282515;28;20421;-77
2023/09/15 00:24:07;;;;;;;5.28;4.28;;;13.80;99.90;;;;;;6280727;28;20049;-78
2023/09/15 00:27:09;;;;;;;5.25;2.30;;;13.80;99.90;;;;;;6280541;28;20044;-79
2023/09/15 00:30:12;;;;;;;5.38;2.20;;;13.80;99.90;;;;;;6280104;28;20056;-78
2023/09/15 00:33:15;;;;;;;3.28;1.90;;;13.80;99.90;;;;;;6279497;28;20045;-78
2023/09/15 00:36:17;;;;;;;3.75;2.15;;;13.70;99.90;;;;;;6279020;28;20037;-78
2023/09/15 00:39:19;;;;;;;4.15;2.80;;;13.70;99.90;;;;;;6286299;28;20044;-79
2023/09/15 00:42:21;;;;;;;2.03;1.85;;;13.60;99.90;;;;;;6279424;28;20045;-78
2023/09/15 00:45:23;;;;;;;3.00;1.70;;;13.50;99.90;;;;;;6269850;28;20044;-77
2023/09/15 00:48:27;;;;;;;3.60;1.70;;;13.50;99.90;;;;;;6276802;28;20068;-78
2023/09/15 00:51:29;;;;;;;2.38;1.70;;;13.40;99.90;;;;;;6280089;28;20512;-79
2023/09/15 00:54:32;;;;;;;5.43;2.22;;;13.40;99.90;;;;;;6292796;28;20466;-77
2023/09/15 00:57:34;;;;;;;3.47;2.10;;;13.30;99.90;;;;;;6276697;28;20120;-77
2023/09/15 01:00:37;;;;;;;2.78;2.30;;;13.30;99.90;;;;;;6278009;28;20045;-79
2023/09/15 01:03:43;;;;;;;2.03;1.60;;;13.20;99.90;;;;;;6276990;28;20509;-79
2023/09/15 01:06:46;;;;;;;5.28;2.00;;;13.10;99.90;;;;;;6277223;28;20512;-79
2023/09/15 01:09:48;;;;;;;4.00;1.85;;;13.20;99.90;;;;;;6279044;28;20087;-79
2023/09/15 01:12:52;;;;;;;2.72;2.35;;;13.20;99.90;;;;;;6277498;28;20091;-79
2023/09/15 01:16:00;;;;;;;5.97;3.03;;;13.20;99.90;;;;;;6279098;28;20049;-79
2023/09/15 01:19:18;;;;;;;2.58;2.08;;;13.10;99.90;;;;;;6278674;28;20060;-79
2023/09/15 01:23:01;;;;;;;2.43;1.77;;;13.10;99.90;;;;;;6293135;28;20048;-79
2023/09/15 01:26:18;;;;;;;3.58;1.85;;;13.10;99.90;;;;;;6280750;28;20045;-78
2023/09/15 01:29:40;;;;;;;5.78;2.30;;;13.10;99.90;;;;;;6278190;28;20084;-78
2023/09/15 01:32:43;;;;;;;3.17;2.45;;;13.00;99.90;;;;;;6271993;28;20047;-78
2023/09/15 01:35:45;;;;;;;4.93;2.35;;;13.00;99.90;;;;;;6278663;28;20480;-79
2023/09/15 01:38:46;;;;;;;3.10;2.67;;;13.00;99.90;;;;;;6276850;28;20052;-77
2023/09/15 01:41:48;;;;;;;1.98;1.85;;;13.00;99.90;;;;;;6277372;28;20045;-77
2023/09/15 01:44:51;;;;;;;2.95;2.58;;;13.00;99.90;;;;;;6279553;28;20649;-79
2023/09/15 01:47:53;;;;;;;3.00;2.65;;;12.90;99.90;;;;;;6280430;28;20041;-78
2023/09/15 01:50:57;;;;;;;2.70;2.22;;;12.90;99.90;;;;;;6280037;28;20064;-79
2023/09/15 01:53:59;;;;;;;3.40;2.53;;;12.90;99.90;;;;;;6279105;28;20060;-79
2023/09/15 01:57:01;;;;;;;2.47;2.03;;;12.90;99.90;;;;;;6278139;28;20037;-79
2023/09/15 02:00:06;;;;;;;3.20;2.15;;;12.90;99.90;;;;;;6279974;28;20055;-76
2023/09/15 02:03:08;;;;;;;3.92;2.67;;;12.80;99.90;;;;;;6282703;28;20053;-79
2023/09/15 02:06:16;;;;;;;3.83;2.90;;;12.90;99.90;;;;;;6281833;28;20048;-79
2023/09/15 02:09:19;;;;;;;2.10;1.90;;;12.80;99.90;;;;;;6282553;28;20123;-79
2023/09/15 02:12:21;;;;;;;4.07;2.78;;;12.80;99.90;;;;;;6280262;28;20176;-78
2023/09/15 02:15:24;;;;;;;3.30;2.47;;;12.80;99.90;;;;;;6276629;28;20049;-75
2023/09/15 02:18:25;;;;;;;3.55;2.58;;;12.90;99.90;;;;;;6277377;28;20037;-78
2023/09/15 02:21:27;;;;;;;3.17;1.85;;;12.80;99.90;;;;;;6268657;28;20045;-78
2023/09/15 02:24:31;;;;;;;3.00;2.40;;;12.90;99.90;;;;;;6277937;28;20041;-79
2023/09/15 02:27:33;;;;;;;4.20;2.15;;;12.90;99.90;;;;;;6278156;28;20131;-76
2023/09/15 02:30:38;;;;;;;9.52;2.88;;;12.90;99.90;;;;;;6277224;28;20462;-78
2023/09/15 02:33:40;;;;;;;4.18;2.60;;;12.90;99.90;;;;;;6276187;28;20048;-78
2023/09/15 02:36:41;;;;;;;3.42;2.35;;;12.90;99.90;;;;;;6277093;28;20060;-78
2023/09/15 02:39:43;;;;;;;3.85;2.90;;;12.90;99.90;;;;;;6278135;28;20055;-78
2023/09/15 02:42:45;;;;;;;6.60;2.55;;;12.80;99.90;;;;;;6279505;28;20056;-78
2023/09/15 02:45:48;;;;;;;3.85;2.70;;;12.80;99.90;;;;;;6276375;28;20565;-79
2023/09/15 02:48:49;;;;;;;3.40;1.70;;;12.70;99.90;;;;;;6276491;28;20410;-77
2023/09/15 02:51:51;;;;;;;4.65;3.10;;;12.70;99.90;;;;;;6277045;28;20041;-79
2023/09/15 02:54:53;;;;;;;4.93;2.38;;;12.70;99.90;;;;;;6276812;28;20068;-79
2023/09/15 02:57:55;;;;;;;4.93;2.40;;;12.60;99.90;;;;;;6276497;28;20406;-77
2023/09/15 03:00:58;;;;;;;2.42;1.90;;;12.60;99.90;;;;;;6276818;28;20059;-79
2023/09/15 03:03:59;;;;;;;5.38;3.55;;;12.60;99.90;;;;;;6275851;28;20060;-79
2023/09/15 03:07:01;;;;;;;2.28;1.95;;;12.60;99.90;;;;;;6278002;28;20055;-79
2023/09/15 03:10:04;;;;;;;6.10;2.95;;;12.60;99.90;;;;;;6281760;28;20064;-77
2023/09/15 03:13:06;;;;;;;4.38;2.97;;;12.60;99.90;;;;;;6281266;28;20045;-78
2023/09/15 03:16:11;;;;;;;4.65;2.97;;;12.60;99.90;;;;;;6281427;28;20053;-79
2023/09/15 03:19:13;;;;;;;4.95;3.70;;;12.60;99.90;;;;;;6281990;28;20275;-78
2023/09/15 03:22:15;;;;;;;3.50;3.08;;;12.60;99.90;;;;;;6280097;28;20398;-77
2023/09/15 03:25:17;;;;;;;6.65;2.40;;;12.50;99.90;;;;;;6280012;28;20049;-77
2023/09/15 03:28:18;;;;;;;2.50;2.30;;;12.50;99.90;;;;;;6279119;28;20098;-79
2023/09/15 03:31:21;;;;;;;4.10;2.85;;;12.50;99.90;;;;;;6281117;28;20567;-79
2023/09/15 03:34:23;;;;;;;4.60;2.25;;;12.50;99.90;;;;;;6280763;28;20064;-79
2023/09/15 03:37:25;;;;;;;4.85;2.70;;;12.50;99.90;;;;;;6295669;28;20150;-78
2023/09/15 03:40:27;;;;;;;4.13;2.88;;;12.50;99.90;;;;;;6305460;28;20135;-79
2023/09/15 03:43:29;;;;;;;4.22;2.95;;;12.50;99.90;;;;;;6305913;28;20062;-78
2023/09/15 03:46:32;;;;;;;4.30;3.33;;;12.50;99.90;;;;;;6279805;28;20631;-78
2023/09/15 03:49:34;;;;;;;4.78;3.35;;;12.50;99.90;;;;;;6272487;28;20075;-79
2023/09/15 03:52:36;;;;;;;8.52;4.00;;;12.50;99.90;;;;;;6280093;28;20041;-79
2023/09/15 03:55:37;;;;;;;5.18;3.78;;;12.50;99.90;;;;;;6280733;28;20404;-79
2023/09/15 03:58:39;;;;;;;4.55;2.38;;;12.50;99.90;;;;;;6280327;28;20425;-77
2023/09/15 04:01:42;;;;;;;4.32;2.53;;;12.50;99.90;;;;;;6281379;28;20048;-78
2023/09/15 04:04:44;;;;;;;6.25;3.42;;;12.50;99.90;;;;;;6282320;28;20041;-78
2023/09/15 04:07:46;;;;;;;4.53;3.25;;;12.40;99.90;;;;;;6300536;28;20040;-77
2023/09/15 04:10:48;;;;;;;4.43;3.60;;;12.40;99.90;;;;;;6308266;28;20044;-79
2023/09/15 04:13:50;;;;;;;5.88;4.72;;;12.50;99.90;;;;;;6310091;28;20048;-77
2023/09/15 04:16:53;;;;;;;4.10;2.78;;;12.50;99.90;;;;;;6286582;28;20064;-77
2023/09/15 04:19:54;;;;;;;4.45;2.85;;;12.50;99.90;;;;;;6284655;28;20053;-78
2023/09/15 04:22:56;;;;;;;4.65;4.10;;;12.50;99.90;;;;;;6281680;28;20052;-78
2023/09/15 04:25:58;;;;;;;4.85;2.63;;;12.50;99.90;;;;;;6280963;28;20053;-77
2023/09/15 04:29:00;;;;;;;3.78;2.80;;;12.50;99.90;;;;;;6281792;28;20045;-79
2023/09/15 04:32:04;;;;;;;6.30;3.03;;;12.50;99.90;;;;;;6275936;28;20512;-77
2023/09/15 04:35:08;;;;;;;2.50;2.20;;;12.50;99.90;;;;;;6274836;28;20419;-77
2023/09/15 04:38:09;;;;;;;4.85;3.13;;;12.50;99.90;;;;;;6274497;28;20052;-78
2023/09/15 04:41:11;;;;;;;5.28;3.10;;;12.60;99.90;;;;;;6274503;28;20057;-78
2023/09/15 04:44:13;;;;;;;3.47;2.75;;;12.60;99.90;;;;;;6273913;28;20045;-77
2023/09/15 04:47:31;;;;;;;7.18;3.00;;;12.50;99.90;;;;;;6275023;28;20045;-77
2023/09/15 04:50:36;;;;;;;6.57;3.10;;;12.50;99.90;;;;;;6273966;28;20120;-77
2023/09/15 04:53:38;;;;;;;5.90;3.42;;;12.50;99.90;;;;;;6289735;28;20283;-78
2023/09/15 04:56:39;;;;;;;3.90;2.97;;;12.60;99.90;;;;;;6281458;28;20417;-78
2023/09/15 04:59:41;;;;;;;3.08;2.55;;;12.60;99.90;;;;;;6273898;28;20045;-78
2023/09/15 05:02:45;;;;;;;7.35;3.95;;;12.60;99.90;;;;;;6290837;28;20044;-77
2023/09/15 05:05:50;;;;;;;3.95;2.95;;;12.60;99.90;;;;;;6298498;28;20053;-78
2023/09/15 05:08:52;;;;;;;7.28;2.67;;;12.60;99.90;;;;;;6298173;28;20045;-78
2023/09/15 05:11:54;;;;;;;5.45;2.88;;;12.60;99.90;;;;;;6300268;28;20044;-78
2023/09/15 05:14:56;;;;;;;3.35;2.63;;;12.60;99.90;;;;;;6289883;28;20056;-78
2023/09/15 05:18:00;;;;;;;4.43;2.85;;;12.60;99.90;;;;;;6298591;28;20049;-77
2023/09/15 05:21:02;;;;;;;4.30;2.42;;;12.70;99.90;;;;;;6299035;28;20040;-77
2023/09/15 05:24:04;;;;;;;10.50;5.68;;;12.70;99.90;;;;;;6297685;28;20046;-76
2023/09/15 05:27:06;;;;;;;2.70;2.20;;;12.70;99.90;;;;;;6298150;28;20041;-77
2023/09/15 05:30:08;;;;;;;4.13;2.85;;;12.70;99.90;;;;;;6297985;28;20041;-77
2023/09/15 05:33:12;;;;;;;5.28;3.10;;;12.80;99.90;;;;;;6297912;28;20090;-77
2023/09/15 05:36:13;;;;;;;5.93;2.50;;;12.90;99.90;;;;;;6298382;28;20045;-77
2023/09/15 05:39:15;;;;;;;4.53;3.83;;;12.90;99.90;;;;;;6298940;28;20052;-78
2023/09/15 05:42:17;;;;;;;3.63;3.13;;;13.00;99.90;;;;;;6275925;28;20099;-77
2023/09/15 05:45:18;;;;;;;4.95;2.80;;;13.00;99.90;;;;;;6275424;28;20048;-78
2023/09/15 05:48:23;;;;;;;3.78;3.28;;;13.20;99.90;;;;;;6276499;28;20041;-78
2023/09/15 05:51:25;;;;;;;4.45;2.40;;;13.40;99.90;;;;;;6274787;28;20497;-77
2023/09/15 05:54:27;;;;;;;3.65;2.75;;;13.50;99.90;;;;;;6274983;28;20041;-78
2023/09/15 05:57:28;;;;;;;5.57;2.55;;;13.60;99.90;;;;;;6275386;28;20033;-76
2023/09/15 06:00:30;;;;;;;4.05;2.60;;;13.80;99.90;;;;;;6274773;28;20041;-77
2023/09/15 06:03:33;;;;;;;4.63;2.78;;;13.90;99.90;;;;;;6274845;28;20049;-77
2023/09/15 06:06:35;;;;;;;3.47;2.40;;;14.00;99.90;;;;;;6274870;28;20049;-78
2023/09/15 06:09:36;;;;;;;3.25;2.83;;;14.20;99.90;;;;;;6275030;28;20053;-78
2023/09/15 06:12:38;;;;;;;8.85;4.80;;;14.30;99.90;;;;;;6275701;28;20048;-76
2023/09/15 06:15:40;;;;;;;3.20;2.50;;;14.40;99.90;;;;;;6267548;28;20055;-78
2023/09/15 06:18:43;;;;;;;2.65;2.45;;;14.50;99.90;;;;;;6284355;28;20036;-77
2023/09/15 06:21:46;;;;;;;3.13;2.70;;;14.60;99.90;;;;;;6299334;28;20051;-78
2023/09/15 06:24:47;;;;;;;3.90;2.72;;;14.60;99.90;;;;;;6298228;28;20049;-78
2023/09/15 06:27:49;;;;;;;3.38;2.50;;;14.70;99.90;;;;;;6298297;28;20047;-78
2023/09/15 06:30:52;;;;;;;4.35;3.25;;;14.90;99.90;;;;;;6299108;28;20055;-76
2023/09/15 06:33:55;;;;;;;5.38;2.17;;;15.10;99.90;;;;;;6279685;28;20047;-78
2023/09/15 06:36:56;;;;;;;3.53;2.53;;;15.20;99.90;;;;;;6274002;28;20044;-79
2023/09/15 06:39:58;;;;;;;2.65;2.08;;;15.40;99.90;;;;;;6275502;28;20055;-78
2023/09/15 06:43:00;;;;;;;7.25;2.72;;;15.50;99.90;;;;;;6274804;28;20048;-78
2023/09/15 06:46:02;;;;;;;4.50;2.85;;;15.60;99.90;;;;;;6274371;28;20055;-77
2023/09/15 06:49:05;;;;;;;4.38;2.30;;;15.80;99.90;;;;;;6274848;28;20041;-77
2023/09/15 06:52:07;;;;;;;4.95;2.88;;;16.00;99.90;;;;;;6273034;28;20249;-78
2023/09/15 06:55:09;;;;;;;6.07;3.08;;;16.20;99.90;;;;;;6277333;28;20056;-78
2023/09/15 06:58:10;;;;;;;4.72;3.17;;;16.40;99.90;;;;;;6281884;28;20033;-78
2023/09/15 07:01:12;;;;;;;5.88;2.83;;;16.60;99.90;;;;;;6278521;28;20051;-78
2023/09/15 07:04:15;;;;;;;7.50;2.50;;;16.70;99.90;;;;;;6278511;28;20045;-78
2023/09/15 07:07:17;;;;;;;3.72;2.65;;;16.90;99.90;;;;;;6275298;28;20045;-77
2023/09/15 07:10:19;;;;;;;5.25;1.92;;;17.00;99.90;;;;;;6272301;28;20045;-77
2023/09/15 07:13:20;;;;;;;6.63;2.30;;;17.30;99.90;;;;;;6271050;28;20052;-78
2023/09/15 07:16:22;;;;;;;5.07;2.78;;;17.60;99.90;;;;;;6272006;28;20096;-78
2023/09/15 07:19:25;;;;;;;5.82;4.13;;;17.90;99.90;;;;;;6272507;28;20056;-78
2023/09/15 07:22:27;;;;;;;5.53;2.70;;;18.20;99.90;;;;;;6224476;28;20051;-79
2023/09/15 07:25:29;;;;;;;5.10;2.85;;;18.40;99.90;;;;;;6272276;28;20424;-78
2023/09/15 07:32:56;;;;;;;3.20;1.88;;;18.90;99.90;;;;;;6270896;28;20462;-77
2023/09/15 07:36:00;;;;;;;3.42;2.78;;;19.30;99.90;;;;;;6268613;28;20057;-77
2023/09/15 07:39:05;;;;;;;3.97;2.40;;;19.60;99.90;;;;;;6289385;28;20513;-78
2023/09/15 07:42:08;;;;;;;3.72;2.00;;;19.90;99.90;;;;;;6271124;28;20045;-77
2023/09/15 07:45:10;;;;;;;3.60;2.97;;;20.20;99.30;;;;;;6272823;28;20041;-78
2023/09/15 07:56:07;;;;;;;3.20;2.03;;;21.10;96.70;;;;;;6286528;28;20028;-77
2023/09/15 07:59:08;;;;;;;2.63;1.88;;;21.50;96.30;;;;;;6308067;28;20067;-77
2023/09/15 08:02:10;;;;;;;2.72;1.90;;;21.90;95.40;;;;;;6286523;28;20047;-78
2023/09/15 08:05:12;;;;;;;3.00;2.10;;;22.40;94.40;;;;;;6277966;28;20052;-78
2023/09/15 08:08:14;;;;;;;2.17;1.95;;;22.80;93.30;;;;;;6279626;28;20049;-78
2023/09/15 08:11:17;;;;;;;6.03;2.45;;;23.00;92.60;;;;;;6278907;28;20067;-78
2023/09/15 08:14:18;;;;;;;5.10;2.47;;;23.00;91.90;;;;;;6278218;28;20071;-77
2023/09/15 08:17:20;;;;;;;3.53;2.00;;;23.10;91.60;;;;;;6278293;28;20041;-78
2023/09/15 08:20:22;;;;;;;3.45;2.15;;;23.20;91.00;;;;;;6275923;28;20044;-77
2023/09/15 08:23:24;;;;;;;2.55;2.13;;;23.30;90.60;;;;;;6277205;28;20099;-77
2023/09/15 08:26:27;;;;;;;2.67;1.80;;;23.40;90.30;;;;;;6275528;28;20044;-77
2023/09/15 08:29:28;;;;;;;6.57;2.58;;;23.70;89.60;;;;;;6292434;28;20051;-79
2023/09/15 08:32:31;;;;;;;6.57;3.03;;;23.80;87.50;;;;;;6278780;28;20045;-77
2023/09/15 08:35:33;;;;;;;5.20;2.13;;;23.80;86.70;;;;;;6275329;28;20056;-78
2023/09/15 08:38:35;;;;;;;2.90;1.83;;;24.00;85.90;;;;;;6274937;28;20040;-77
2023/09/15 08:41:41;;;;;;;2.80;2.38;;;24.50;83.90;;;;;;6274372;28;20413;-77
2023/09/15 08:44:44;;;;;;;2.35;1.83;;;24.50;82.70;;;;;;6276731;28;20045;-78
2023/09/15 08:47:50;;;;;;;2.63;1.75;;;24.80;81.60;;;;;;6276535;28;20564;-78
2023/09/15 08:50:53;;;;;;;2.88;2.40;;;25.20;80.10;;;;;;6290443;28;20049;-77
2023/09/15 08:53:57;;;;;;;2.97;2.20;;;25.30;78.30;;;;;;6300860;28;20063;-78
2023/09/15 08:57:01;;;;;;;2.90;1.80;;;25.40;78.00;;;;;;6291322;28;20510;-77
2023/09/15 09:00:07;;;;;;;1.90;1.63;;;25.60;77.20;;;;;;6285036;28;20068;-77
2023/09/15 09:03:12;;;;;;;3.05;2.38;;;25.50;76.50;;;;;;6275854;28;20501;-78
2023/09/15 09:06:15;;;;;;;2.55;2.35;;;25.60;76.50;;;;;;6273908;28;20037;-78
2023/09/15 09:09:17;;;;;;;3.15;2.22;;;25.90;76.30;;;;;;6273977;28;20041;-78
2023/09/15 09:12:21;;;;;;;4.40;2.08;;;25.80;75.60;;;;;;6276476;28;20421;-78
2023/09/15 09:15:23;;;;;;;4.57;3.25;;;25.60;75.90;;;;;;6282471;28;20052;-78
2023/09/15 09:18:25;;;;;;;6.22;2.20;;;25.60;76.30;;;;;;6268896;28;20037;-77
2023/09/15 09:21:28;;;;;;;2.83;2.05;;;25.80;76.00;;;;;;6283701;28;20070;-77
2023/09/15 09:24:30;;;;;;;3.63;2.60;;;25.80;75.30;;;;;;6279825;28;20048;-78
2023/09/15 09:27:34;;;;;;;4.65;3.50;;;25.70;75.00;;;;;;6272637;28;20052;-77
2023/09/15 09:30:36;;;;;;;4.50;2.78;;;25.40;75.20;;;;;;6272478;28;20276;-78
2023/09/15 09:33:38;;;;;;;2.28;2.05;;;25.40;76.10;;;;;;6272076;28;20044;-77
2023/09/15 09:36:48;;;;;;;3.63;2.67;;;25.60;75.90;;;;;;6271537;28;20048;-78
2023/09/15 09:39:49;;;;;;;3.53;2.13;;;26.00;75.70;;;;;;6272442;28;20604;-78
2023/09/15 09:42:54;;;;;;;2.25;1.60;;;26.50;75.20;;;;;;6265078;28;20045;-77
2023/09/15 09:45:57;;;;;;;3.17;2.28;;;26.80;74.30;;;;;;6289713;28;20139;-77
2023/09/15 09:48:59;;;;;;;3.42;2.13;;;27.00;73.30;;;;;;6297186;28;20425;-78
2023/09/15 09:52:00;;;;;;;2.72;2.08;;;27.10;73.00;;;;;;6296757;28;20048;-77
2023/09/15 09:55:04;;;;;;;2.83;2.08;;;27.30;72.50;;;;;;6297014;28;20059;-77
2023/09/15 09:58:09;;;;;;;3.22;2.28;;;27.40;72.00;;;;;;6288845;28;20067;-77
2023/09/15 10:01:11;;;;;;;3.25;2.20;;;27.60;71.50;;;;;;6277417;28;20121;-78
2023/09/15 10:04:13;;;;;;;2.45;2.17;;;27.40;71.10;;;;;;6271858;28;20079;-76
2023/09/15 10:07:15;;;;;;;2.08;1.83;;;27.40;71.00;;;;;;6291792;28;20126;-77
2023/09/15 10:10:17;;;;;;;3.72;2.05;;;27.60;70.50;;;;;;6293705;28;20048;-78
2023/09/15 10:13:22;;;;;;;2.83;1.35;;;27.50;70.60;;;;;;6270848;28;20524;-77
2023/09/15 10:16:24;;;;;;;2.38;1.80;;;27.60;70.40;;;;;;6285836;28;20124;-79
2023/09/15 10:19:26;;;;;;;3.50;2.17;;;27.80;70.20;;;;;;6275328;28;20046;-77
2023/09/15 10:22:28;;;;;;;9.15;2.10;;;28.10;69.60;;;;;;6269922;28;20045;-76
2023/09/15 10:25:41;;;;;;;2.33;1.70;;;28.40;69.50;;;;;;6270677;28;20044;-78
2023/09/15 10:28:49;;;;;;;4.80;1.77;;;28.70;68.60;;;;;;6269502;28;20047;-77
2023/09/15 10:31:53;;;;;;;4.25;2.10;;;29.00;68.00;;;;;;6267960;28;20049;-77
2023/09/15 10:34:54;;;;;;;2.83;2.00;;;28.90;67.50;;;;;;6268880;28;20057;-76
2023/09/15 10:37:58;;;;;;;2.17;1.88;;;28.80;67.10;;;;;;6271901;28;20045;-78
2023/09/15 10:41:03;;;;;;;3.95;2.38;;;28.80;67.00;;;;;;6271948;28;20049;-77
2023/09/15 10:44:06;;;;;;;2.53;1.98;;;28.80;66.30;;;;;;6279740;28;20053;-77
2023/09/15 10:47:16;;;;;;;3.65;2.22;;;28.90;66.20;;;;;;6282254;28;20057;-78
2023/09/15 10:50:30;;;;;;;3.28;2.00;;;28.80;66.10;;;;;;6291675;28;20409;-77
2023/09/15 10:53:42;;;;;;;3.33;1.98;;;29.00;65.80;;;;;;6291827;28;20049;-77
2023/09/15 10:56:44;;;;;;;4.00;2.42;;;29.30;64.80;;;;;;6296235;28;20044;-77
2023/09/15 10:59:47;;;;;;;3.45;2.20;;;29.30;64.90;;;;;;6292404;28;20051;-78
2023/09/15 11:02:48;;;;;;;6.32;2.40;;;29.20;64.60;;;;;;6285500;28;20377;-78
2023/09/15 11:05:52;;;;;;;4.60;2.28;;;29.20;64.80;;;;;;6293769;28;20048;-78
2023/09/15 11:08:54;;;;;;;2.75;1.92;;;29.30;64.60;;;;;;6289857;28;20041;-77
2023/09/15 11:11:55;;;;;;;2.47;1.88;;;29.60;63.80;;;;;;6287577;28;20045;-77
2023/09/15 11:15:02;;;;;;;2.75;1.83;;;29.60;63.80;;;;;;6279864;28;20045;-78
2023/09/15 11:18:06;;;;;;;2.37;2.03;;;29.90;63.20;;;;;;6271837;28;20041;-77
2023/09/15 11:21:08;;;;;;;4.82;2.45;;;30.00;62.80;;;;;;6279669;28;20118;-77
2023/09/15 11:24:10;;;;;;;3.25;1.67;;;29.80;62.60;;;;;;6282324;28;20048;-77
2023/09/15 11:27:16;;;;;;;2.85;1.92;;;29.60;62.40;;;;;;6281392;28;20064;-77
2023/09/15 11:30:19;;;;;;;2.58;1.65;;;29.60;62.60;;;;;;6287584;28;20045;-77
2023/09/15 11:33:22;;;;;;;2.17;1.90;;;30.10;62.40;;;;;;6295977;28;20047;-78
2023/09/15 11:36:25;;;;;;;4.13;2.17;;;30.80;61.70;;;;;;6299566;28;20044;-78
2023/09/15 11:39:28;;;;;;;2.03;1.40;;;31.40;60.50;;;;;;6298522;28;20037;-76
2023/09/15 11:42:30;;;;;;;2.50;1.33;;;31.60;60.10;;;;;;6299097;28;20063;-78
2023/09/15 11:45:33;;;;;;;2.20;1.60;;;31.90;59.50;;;;;;6297811;28;20040;-78
2023/09/15 11:48:38;;;;;;;2.10;1.88;;;32.40;58.80;;;;;;6289580;28;20605;-78
2023/09/15 11:51:40;;;;;;;2.20;1.60;;;32.90;57.80;;;;;;6280748;28;20037;-78
2023/09/15 11:54:44;;;;;;;1.85;1.65;;;33.20;56.50;;;;;;6277449;28;20037;-77
2023/09/15 11:57:46;;;;;;;2.40;2.08;;;33.10;56.70;;;;;;6275325;28;20111;-77
2023/09/15 12:00:50;;;;;;;3.42;2.00;;;33.30;56.40;;;;;;6274497;28;20045;-78
2023/09/15 12:03:53;;;;;;;2.67;1.98;;;33.30;55.30;;;;;;6274607;28;20045;-77
2023/09/15 12:06:55;;;;;;;4.05;2.38;;;33.00;55.40;;;;;;6283088;28;20397;-77
2023/09/15 12:09:57;;;;;;;2.58;2.28;;;33.20;55.30;;;;;;6274588;28;20441;-77
2023/09/15 12:12:59;;;;;;;2.05;1.75;;;33.20;54.50;;;;;;6273488;28;20053;-77
2023/09/15 12:16:03;;;;;;;1.50;1.17;;;32.80;54.60;;;;;;6265450;28;20049;-77
2023/09/15 12:19:05;;;;;;;6.40;2.35;;;32.70;54.90;;;;;;6273348;28;20057;-77
2023/09/15 12:22:07;;;;;;;2.50;2.30;;;32.60;54.30;;;;;;6277907;28;20045;-78
2023/09/15 12:25:11;;;;;;;2.42;2.22;;;32.10;54.30;;;;;;6286056;28;20048;-78
2023/09/15 12:28:13;;;;;;;5.00;2.65;;;31.60;54.50;;;;;;6282426;28;20045;-77
2023/09/15 12:31:18;;;;;;;5.63;2.38;;;31.40;54.90;;;;;;6263395;28;20055;-77
2023/09/15 12:34:20;;;;;;;1.67;1.58;;;31.10;55.10;;;;;;6290863;28;20052;-77
2023/09/15 12:37:22;;;;;;;3.03;2.35;;;30.90;55.20;;;;;;6298939;28;20052;-77
2023/09/15 12:40:24;;;;;;;2.67;2.30;;;30.80;55.40;;;;;;6290416;28;20047;-77
2023/09/15 12:43:25;;;;;;;2.38;1.92;;;30.90;55.50;;;;;;6299034;28;20131;-78
2023/09/15 12:46:28;;;;;;;5.47;2.10;;;30.90;55.40;;;;;;6294042;28;20548;-77
2023/09/15 12:49:30;;;;;;;3.22;2.60;;;30.90;55.30;;;;;;6295100;28;20045;-77
2023/09/15 12:52:32;;;;;;;3.05;2.45;;;31.00;55.50;;;;;;6297599;28;20040;-78
2023/09/15 12:55:34;;;;;;;2.83;1.98;;;31.10;55.30;;;;;;6290356;28;20111;-78
2023/09/15 12:58:36;;;;;;;2.53;2.33;;;31.20;55.20;;;;;;6294192;28;20049;-78
2023/09/15 13:01:39;;;;;;;2.53;1.88;;;31.30;55.00;;;;;;6292903;28;20045;-78
2023/09/15 13:04:40;;;;;;;2.15;1.92;;;31.70;54.90;;;;;;6291512;28;20037;-77
2023/09/15 13:07:45;;;;;;;2.45;2.15;;;32.10;54.50;;;;;;6291463;28;20054;-77
2023/09/15 13:10:47;;;;;;;2.92;2.50;;;32.20;53.70;;;;;;6285611;28;20481;-77
2023/09/15 13:13:49;;;;;;;3.10;2.50;;;32.10;53.80;;;;;;6295558;28;20416;-78
2023/09/15 13:16:52;;;;;;;2.58;2.35;;;31.70;53.70;;;;;;6288683;28;20048;-77
2023/09/15 13:19:55;;;;;;;2.47;2.28;;;31.50;54.10;;;;;;6282879;28;20398;-77
2023/09/15 13:22:57;;;;;;;4.05;2.83;;;31.80;54.10;;;;;;6291257;28;20132;-78
2023/09/15 13:25:59;;;;;;;3.15;2.40;;;31.80;53.70;;;;;;6287064;28;20059;-75
2023/09/15 13:29:01;;;;;;;6.20;3.40;;;31.40;54.10;;;;;;6285342;28;20508;-77
2023/09/15 13:32:04;;;;;;;3.67;2.42;;;31.20;54.50;;;;;;6291453;28;20052;-78
2023/09/15 13:35:07;;;;;;;3.50;3.15;;;31.30;54.80;;;;;;6282379;28;20080;-78
2023/09/15 13:38:08;;;;;;;3.15;2.30;;;31.60;54.70;;;;;;6299162;28;20056;-77
2023/09/15 13:41:10;;;;;;;2.25;2.05;;;32.00;54.30;;;;;;6299968;28;20044;-78
2023/09/15 13:44:12;;;;;;;3.42;2.22;;;32.10;54.00;;;;;;6299598;28;20487;-78
2023/09/15 13:47:15;;;;;;;2.47;2.28;;;32.50;53.70;;;;;;6283881;28;20383;-79
2023/09/15 13:50:17;;;;;;;4.63;2.85;;;32.80;53.20;;;;;;6274117;28;20063;-77
2023/09/15 13:53:19;;;;;;;3.05;2.67;;;32.80;52.90;;;;;;6296520;28;20531;-78
2023/09/15 13:56:20;;;;;;;4.93;2.50;;;32.60;52.90;;;;;;6282016;28;20045;-77
2023/09/15 13:59:22;;;;;;;3.97;3.05;;;32.50;53.30;;;;;;6285085;28;20053;-78
2023/09/15 14:02:25;;;;;;;2.53;2.20;;;32.80;53.20;;;;;;6305805;28;20054;-76
2023/09/15 14:05:27;;;;;;;3.45;2.83;;;32.90;52.60;;;;;;6299701;28;20048;-77
2023/09/15 14:08:29;;;;;;;3.70;2.95;;;32.70;52.70;;;;;;6305587;28;20505;-76
2023/09/15 14:11:31;;;;;;;2.85;2.25;;;32.80;52.40;;;;;;6311101;28;20048;-76
2023/09/15 14:14:32;;;;;;;3.47;3.00;;;32.60;52.40;;;;;;6298463;28;20044;-77
2023/09/15 14:17:35;;;;;;;4.15;2.65;;;32.50;52.60;;;;;;6277689;28;20041;-78
2023/09/15 14:20:37;;;;;;;4.45;2.70;;;32.50;52.70;;;;;;6273596;28;20052;-77
2023/09/15 14:23:39;;;;;;;4.20;2.50;;;32.40;52.80;;;;;;6288045;28;20055;-77
2023/09/15 14:26:42;;;;;;;3.42;2.45;;;32.40;52.90;;;;;;6298151;28;20428;-77
2023/09/15 14:29:44;;;;;;;3.97;2.15;;;32.30;52.70;;;;;;6290525;28;20049;-77
2023/09/15 14:32:47;;;;;;;5.22;2.22;;;32.30;52.90;;;;;;6286987;28;20052;-77
2023/09/15 14:35:49;;;;;;;3.05;2.35;;;32.50;53.10;;;;;;6286099;28;20048;-76
2023/09/15 14:38:51;;;;;;;3.20;2.67;;;32.70;52.40;;;;;;6288298;28;20070;-78
2023/09/15 14:41:53;;;;;;;2.67;2.28;;;32.20;52.70;;;;;;6283364;28;20166;-77
2023/09/15 14:44:54;;;;;;;3.50;2.33;;;31.90;53.00;;;;;;6295356;28;20068;-77
2023/09/15 14:48:02;;;;;;;2.63;2.33;;;32.00;53.20;;;;;;6289399;28;20052;-77
2023/09/15 14:51:04;;;;;;;2.47;2.15;;;31.90;53.00;;;;;;6278915;28;20044;-76
2023/09/15 14:54:06;;;;;;;2.63;2.03;;;31.70;53.20;;;;;;6295209;28;20045;-77
2023/09/15 14:57:09;;;;;;;2.67;2.38;;;31.20;53.70;;;;;;6295605;28;20047;-77
2023/09/15 15:00:12;;;;;;;2.05;1.85;;;30.90;54.10;;;;;;6295446;28;20064;-77
2023/09/15 15:03:15;;;;;;;2.40;2.20;;;30.60;54.50;;;;;;6296457;28;20048;-77
2023/09/15 15:06:18;;;;;;;4.13;3.17;;;30.30;54.90;;;;;;6300477;28;20140;-77
2023/09/15 15:09:20;;;;;;;3.28;2.00;;;30.00;55.00;;;;;;6293120;28;20037;-78
2023/09/15 15:12:22;;;;;;;2.97;2.58;;;29.80;55.40;;;;;;6291814;28;20041;-77
2023/09/15 15:15:24;;;;;;;4.03;2.33;;;29.70;55.80;;;;;;6300822;28;20051;-77
2023/09/15 15:18:30;;;;;;;3.17;2.47;;;29.60;56.10;;;;;;6294280;28;20048;-77
2023/09/15 15:21:31;;;;;;;2.88;2.20;;;29.40;56.30;;;;;;6300058;28;20065;-78
2023/09/15 15:24:33;;;;;;;2.40;2.20;;;29.20;56.60;;;;;;6291488;28;20492;-77
2023/09/15 15:27:36;;;;;;;2.80;2.35;;;29.10;57.20;;;;;;6300818;28;20052;-77
2023/09/15 15:30:38;;;;;;;2.40;2.20;;;29.00;57.30;;;;;;6299854;28;20028;-77
2023/09/15 15:33:42;;;;;;;2.47;2.05;;;28.80;58.20;;;;;;6300209;28;20044;-77
2023/09/15 15:36:43;;;;;;;4.22;2.22;;;28.70;57.80;;;;;;6299255;28;20047;-77
2023/09/15 15:39:46;;;;;;;3.33;2.55;;;28.50;58.10;;;;;;6300279;28;20051;-78
2023/09/15 15:42:48;;;;;;;2.40;1.95;;;28.40;58.40;;;;;;6283430;28;20412;-77
2023/09/15 15:45:55;;;;;;;3.22;2.38;;;28.20;58.70;;;;;;6294824;28;20041;-80
2023/09/15 15:48:59;;;;;;;2.90;2.50;;;28.20;59.10;;;;;;6281354;28;20514;-79
2023/09/15 15:52:01;;;;;;;2.70;2.45;;;28.10;59.30;;;;;;6286283;28;20045;-78
2023/09/15 15:55:03;;;;;;;4.32;3.05;;;27.90;59.50;;;;;;6293776;28;20048;-77
2023/09/15 15:58:05;;;;;;;7.53;2.85;;;27.80;59.80;;;;;;6294336;28;20390;-77
2023/09/15 16:01:06;;;;;;;5.03;2.55;;;27.70;60.20;;;;;;6294364;28;20050;-80
2023/09/15 16:04:09;;;;;;;3.42;2.55;;;27.50;60.40;;;;;;6302668;28;20051;-78
2023/09/15 16:07:11;;;;;;;2.38;1.90;;;27.50;60.90;;;;;;6303386;28;20054;-80